sensor_id;sensor_type;location;lat;lon;timestamp;pressure;altitude;pressure_sealevel;temperature;humidity
19108;BME280;9686;48.832;9.126;2023-05-11T00:01:05;97993.03;;;14.12;nan
19108;BME280;9686;48.832;9.126;2023-05-11T00:03:31;98000.97;;;14.09;nan
19108;BME280;9686;48.832;9.126;2023-05-11T00:05:57;98003.78;;;14.00;nan
19108;BME280;9686;48.832;9.126;2023-05-11T00:08:23;97995.88;;;14.01;nan
19108;BME280;9686;48.832;9.126;2023-05-11T00:10:48;97987.88;;;14.07;nan
19108;BME280;9686;48.832;9.126;2023-05-11T00:13:14;97985.38;;;14.01;nan
19108;BME280;9686;48.832;9.126;2023-05-11T00:15:39;97986.75;;;14.17;nan
19108;BME280;9686;48.832;9.126;2023-05-11T00:18:05;97984.25;;;14.13;nan
19108;BME280;9686;48.832;9.126;2023-05-11T00:20:30;97983.63;;;14.02;nan
19108;BME280;9686;48.832;9.126;2023-05-11T00:22:55;97981.03;;;14.00;nan
19108;BME280;9686;48.832;9.126;2023-05-11T00:25:20;97988.16;;;13.95;nan
19108;BME280;9686;48.832;9.126;2023-05-11T00:27:46;97992.63;;;13.92;nan
19108;BME280;9686;48.832;9.126;2023-05-11T00:30:12;97988.03;;;14.00;nan
19108;BME280;9686;48.832;9.126;2023-05-11T00:32:39;97990.28;;;14.16;nan
19108;BME280;9686;48.832;9.126;2023-05-11T00:35:04;97988.03;;;14.00;nan
19108;BME280;9686;48.832;9.126;2023-05-11T00:37:30;97989.78;;;14.01;nan
19108;BME280;9686;48.832;9.126;2023-05-11T00:39:55;97990.44;;;14.10;nan
19108;BME280;9686;48.832;9.126;2023-05-11T00:42:20;97985.19;;;14.10;nan
19108;BME280;9686;48.832;9.126;2023-05-11T00:44:46;97987.22;;;13.98;nan
19108;BME280;9686;48.832;9.126;2023-05-11T00:47:11;97978.56;;;13.94;nan
19108;BME280;9686;48.832;9.126;2023-05-11T00:49:37;97984.63;;;13.96;nan
19108;BME280;9686;48.832;9.126;2023-05-11T00:52:03;97989.88;;;13.96;nan
19108;BME280;9686;48.832;9.126;2023-05-11T00:54:29;97988.84;;;14.03;nan
19108;BME280;9686;48.832;9.126;2023-05-11T00:56:54;97992.47;;;13.98;nan
19108;BME280;9686;48.832;9.126;2023-05-11T00:59:20;97988.19;;;13.94;nan
19108;BME280;9686;48.832;9.126;2023-05-11T01:01:45;97982.19;;;13.88;nan
19108;BME280;9686;48.832;9.126;2023-05-11T01:04:11;97987.41;;;13.90;nan
19108;BME280;9686;48.832;9.126;2023-05-11T01:06:44;97991.78;;;13.89;nan
19108;BME280;9686;48.832;9.126;2023-05-11T01:09:26;97990.25;;;13.81;nan
19108;BME280;9686;48.832;9.126;2023-05-11T01:12:14;97981.97;;;13.98;nan
19108;BME280;9686;48.832;9.126;2023-05-11T01:17:13;97981.94;;;13.99;nan
19108;BME280;9686;48.832;9.126;2023-05-11T01:19:56;97985.22;;;14.09;nan
19108;BME280;9686;48.832;9.126;2023-05-11T01:31:09;97985.63;;;13.92;nan
19108;BME280;9686;48.832;9.126;2023-05-11T01:33:36;97988.53;;;13.80;nan
19108;BME280;9686;48.832;9.126;2023-05-11T01:36:07;97979.53;;;13.90;nan
19108;BME280;9686;48.832;9.126;2023-05-11T01:38:38;97977.94;;;13.84;nan
19108;BME280;9686;48.832;9.126;2023-05-11T01:41:12;97979.50;;;13.92;nan
19108;BME280;9686;48.832;9.126;2023-05-11T01:43:39;97981.69;;;13.73;nan
19108;BME280;9686;48.832;9.126;2023-05-11T01:46:06;97978.94;;;13.77;nan
19108;BME280;9686;48.832;9.126;2023-05-11T01:48:37;97984.59;;;13.98;nan
19108;BME280;9686;48.832;9.126;2023-05-11T01:51:03;97981.94;;;13.99;nan
19108;BME280;9686;48.832;9.126;2023-05-11T01:53:32;97980.38;;;13.92;nan
19108;BME280;9686;48.832;9.126;2023-05-11T01:55:59;97980.16;;;14.01;nan
19108;BME280;9686;48.832;9.126;2023-05-11T01:58:26;97978.41;;;14.00;nan
19108;BME280;9686;48.832;9.126;2023-05-11T02:00:53;97978.63;;;13.93;nan
19108;BME280;9686;48.832;9.126;2023-05-11T02:03:20;97978.94;;;13.77;nan
19108;BME280;9686;48.832;9.126;2023-05-11T02:05:47;97972.72;;;13.83;nan
19108;BME280;9686;48.832;9.126;2023-05-11T02:08:13;97983.06;;;13.89;nan
19108;BME280;9686;48.832;9.126;2023-05-11T02:10:40;97977.19;;;13.79;nan
19108;BME280;9686;48.832;9.126;2023-05-11T02:13:07;97972.78;;;13.81;nan
19108;BME280;9686;48.832;9.126;2023-05-11T02:15:36;97974.31;;;13.90;nan
19108;BME280;9686;48.832;9.126;2023-05-11T02:18:05;97983.09;;;13.87;nan
19108;BME280;9686;48.832;9.126;2023-05-11T02:20:31;97982.38;;;13.81;nan
19108;BME280;9686;48.832;9.126;2023-05-11T02:22:57;97977.81;;;13.89;nan
19108;BME280;9686;48.832;9.126;2023-05-11T02:25:24;97987.34;;;13.93;nan
19108;BME280;9686;48.832;9.126;2023-05-11T02:27:49;97982.09;;;13.93;nan
19108;BME280;9686;48.832;9.126;2023-05-11T02:30:15;97982.03;;;13.96;nan
19108;BME280;9686;48.832;9.126;2023-05-11T02:32:47;97976.09;;;13.88;nan
19108;BME280;9686;48.832;9.126;2023-05-11T02:35:28;97978.56;;;13.94;nan
19108;BME280;9686;48.832;9.126;2023-05-11T02:37:59;97974.41;;;13.85;nan
19108;BME280;9686;48.832;9.126;2023-05-11T02:40:30;97973.28;;;13.96;nan
19108;BME280;9686;48.832;9.126;2023-05-11T02:42:59;97980.34;;;13.94;nan
19108;BME280;9686;48.832;9.126;2023-05-11T02:45:29;97977.78;;;13.91;nan
19108;BME280;9686;48.832;9.126;2023-05-11T02:47:57;97974.47;;;13.84;nan
19108;BME280;9686;48.832;9.126;2023-05-11T02:50:24;97976.94;;;13.90;nan
19108;BME280;9686;48.832;9.126;2023-05-11T02:52:54;97973.44;;;13.89;nan
19108;BME280;9686;48.832;9.126;2023-05-11T02:55:21;97976.94;;;13.90;nan
19108;BME280;9686;48.832;9.126;2023-05-11T02:57:47;97974.91;;;14.01;nan
19108;BME280;9686;48.832;9.126;2023-05-11T03:00:13;97973.56;;;13.85;nan
19108;BME280;9686;48.832;9.126;2023-05-11T03:02:38;97975.28;;;13.86;nan
19108;BME280;9686;48.832;9.126;2023-05-11T03:05:04;97981.50;;;13.82;nan
19108;BME280;9686;48.832;9.126;2023-05-11T03:07:31;97973.53;;;13.86;nan
19108;BME280;9686;48.832;9.126;2023-05-11T03:09:57;97964.72;;;13.89;nan
19108;BME280;9686;48.832;9.126;2023-05-11T03:12:22;97973.41;;;13.91;nan
19108;BME280;9686;48.832;9.126;2023-05-11T03:14:48;97965.47;;;13.94;nan
19108;BME280;9686;48.832;9.126;2023-05-11T03:17:14;97962.00;;;13.94;nan
19108;BME280;9686;48.832;9.126;2023-05-11T03:19:41;97964.81;;;13.86;nan
19108;BME280;9686;48.832;9.126;2023-05-11T03:22:08;97966.38;;;13.93;nan
19108;BME280;9686;48.832;9.126;2023-05-11T03:24:34;97965.47;;;13.94;nan
19108;BME280;9686;48.832;9.126;2023-05-11T03:27:00;97963.59;;;13.99;nan
19108;BME280;9686;48.832;9.126;2023-05-11T03:29:28;97964.53;;;13.97;nan
19108;BME280;9686;48.832;9.126;2023-05-11T03:31:54;97961.16;;;13.92;nan
19108;BME280;9686;48.832;9.126;2023-05-11T03:34:19;97957.50;;;13.99;nan
19108;BME280;9686;48.832;9.126;2023-05-11T03:36:47;97952.25;;;13.99;nan
19108;BME280;9686;48.832;9.126;2023-05-11T03:39:14;97959.53;;;13.87;nan
19108;BME280;9686;48.832;9.126;2023-05-11T03:41:39;97958.59;;;13.90;nan
19108;BME280;9686;48.832;9.126;2023-05-11T03:44:07;97950.72;;;13.90;nan
19108;BME280;9686;48.832;9.126;2023-05-11T03:46:37;97956.91;;;13.87;nan
19108;BME280;9686;48.832;9.126;2023-05-11T03:49:04;97952.44;;;13.91;nan
19108;BME280;9686;48.832;9.126;2023-05-11T03:51:30;97954.16;;;13.92;nan
19108;BME280;9686;48.832;9.126;2023-05-11T03:53:56;97956.91;;;13.87;nan
19108;BME280;9686;48.832;9.126;2023-05-11T03:56:22;97947.47;;;13.80;nan
19108;BME280;9686;48.832;9.126;2023-05-11T03:58:47;97946.78;;;13.71;nan
19108;BME280;9686;48.832;9.126;2023-05-11T04:01:13;97944.28;;;13.66;nan
19108;BME280;9686;48.832;9.126;2023-05-11T04:03:49;97952.00;;;13.72;nan
19108;BME280;9686;48.832;9.126;2023-05-11T04:06:16;97946.09;;;13.64;nan
19108;BME280;9686;48.832;9.126;2023-05-11T04:08:41;97947.63;;;13.73;nan
19108;BME280;9686;48.832;9.126;2023-05-11T04:11:07;97949.44;;;13.69;nan
19108;BME280;9686;48.832;9.126;2023-05-11T04:13:33;97943.25;;;13.73;nan
19108;BME280;9686;48.832;9.126;2023-05-11T04:15:58;97946.69;;;13.75;nan
19108;BME280;9686;48.832;9.126;2023-05-11T04:18:23;97942.19;;;13.82;nan
19108;BME280;9686;48.832;9.126;2023-05-11T04:20:49;97940.41;;;13.84;nan
19108;BME280;9686;48.832;9.126;2023-05-11T04:23:14;97941.41;;;13.77;nan
19108;BME280;9686;48.832;9.126;2023-05-11T04:25:39;97938.72;;;13.81;nan
19108;BME280;9686;48.832;9.126;2023-05-11T04:28:05;97939.59;;;13.80;nan
19108;BME280;9686;48.832;9.126;2023-05-11T04:30:30;97943.09;;;13.81;nan
19108;BME280;9686;48.832;9.126;2023-05-11T04:32:55;97944.78;;;13.83;nan
19108;BME280;9686;48.832;9.126;2023-05-11T04:35:21;97944.00;;;13.78;nan
19108;BME280;9686;48.832;9.126;2023-05-11T04:37:46;97944.97;;;13.74;nan
19108;BME280;9686;48.832;9.126;2023-05-11T04:40:11;97944.22;;;13.69;nan
19108;BME280;9686;48.832;9.126;2023-05-11T04:42:37;97944.19;;;13.71;nan
19108;BME280;9686;48.832;9.126;2023-05-11T04:45:02;97945.75;;;13.78;nan
19108;BME280;9686;48.832;9.126;2023-05-11T04:47:28;97945.75;;;13.78;nan
19108;BME280;9686;48.832;9.126;2023-05-11T04:49:53;97948.28;;;13.82;nan
19108;BME280;9686;48.832;9.126;2023-05-11T04:52:18;97944.72;;;13.85;nan
19108;BME280;9686;48.832;9.126;2023-05-11T04:54:43;97950.72;;;13.90;nan
19108;BME280;9686;48.832;9.126;2023-05-11T04:57:09;97956.16;;;13.82;nan
19108;BME280;9686;48.832;9.126;2023-05-11T04:59:34;97956.16;;;13.82;nan
19108;BME280;9686;48.832;9.126;2023-05-11T05:02:00;97955.19;;;13.86;nan
19108;BME280;9686;48.832;9.126;2023-05-11T05:04:25;97946.34;;;13.91;nan
19108;BME280;9686;48.832;9.126;2023-05-11T05:06:50;97950.66;;;13.93;nan
19108;BME280;9686;48.832;9.126;2023-05-11T05:09:16;97950.00;;;13.83;nan
19108;BME280;9686;48.832;9.126;2023-05-11T05:11:41;97955.22;;;13.85;nan
19108;BME280;9686;48.832;9.126;2023-05-11T05:14:06;97957.13;;;13.77;nan
19108;BME280;9686;48.832;9.126;2023-05-11T05:16:32;97952.56;;;13.86;nan
19108;BME280;9686;48.832;9.126;2023-05-11T05:18:57;97950.75;;;13.88;nan
19108;BME280;9686;48.832;9.126;2023-05-11T05:21:22;97952.41;;;13.93;nan
19108;BME280;9686;48.832;9.126;2023-05-11T05:23:48;97959.28;;;13.97;nan
19108;BME280;9686;48.832;9.126;2023-05-11T05:26:13;97960.13;;;13.99;nan
19108;BME280;9686;48.832;9.126;2023-05-11T05:28:39;97952.22;;;14.00;nan
19108;BME280;9686;48.832;9.126;2023-05-11T05:31:05;97959.25;;;13.98;nan
19108;BME280;9686;48.832;9.126;2023-05-11T05:33:30;97958.25;;;14.04;nan
19108;BME280;9686;48.832;9.126;2023-05-11T05:35:55;97964.22;;;14.10;nan
19108;BME280;9686;48.832;9.126;2023-05-11T05:38:21;97960.84;;;14.05;nan
19108;BME280;9686;48.832;9.126;2023-05-11T05:40:46;97958.03;;;14.13;nan
19108;BME280;9686;48.832;9.126;2023-05-11T05:43:11;97956.00;;;14.24;nan
19108;BME280;9686;48.832;9.126;2023-05-11T05:45:37;97960.38;;;14.24;nan
19108;BME280;9686;48.832;9.126;2023-05-11T05:48:02;97962.16;;;14.23;nan
19108;BME280;9686;48.832;9.126;2023-05-11T05:50:30;97958.00;;;14.14;nan
19108;BME280;9686;48.832;9.126;2023-05-11T05:52:55;97974.34;;;14.24;nan
19108;BME280;9686;48.832;9.126;2023-05-11T05:55:20;97963.00;;;14.24;nan
19108;BME280;9686;48.832;9.126;2023-05-11T05:57:46;97967.19;;;14.31;nan
19108;BME280;9686;48.832;9.126;2023-05-11T06:00:12;97972.22;;;14.40;nan
19108;BME280;9686;48.832;9.126;2023-05-11T06:02:37;97975.78;;;14.37;nan
19108;BME280;9686;48.832;9.126;2023-05-11T06:05:03;97973.22;;;14.36;nan
19108;BME280;9686;48.832;9.126;2023-05-11T06:07:28;97974.19;;;14.32;nan
19108;BME280;9686;48.832;9.126;2023-05-11T06:09:54;97972.22;;;14.40;nan
19108;BME280;9686;48.832;9.126;2023-05-11T06:12:19;97975.66;;;14.42;nan
19108;BME280;9686;48.832;9.126;2023-05-11T06:14:44;97974.81;;;14.41;nan
19108;BME280;9686;48.832;9.126;2023-05-11T06:17:10;97980.09;;;14.40;nan
19108;BME280;9686;48.832;9.126;2023-05-11T06:19:35;97985.41;;;14.37;nan
19108;BME280;9686;48.832;9.126;2023-05-11T06:22:01;97980.88;;;14.45;nan
19108;BME280;9686;48.832;9.126;2023-05-11T06:24:26;97984.41;;;14.44;nan
19108;BME280;9686;48.832;9.126;2023-05-11T06:26:51;97981.03;;;14.37;nan
19108;BME280;9686;48.832;9.126;2023-05-11T06:29:16;97983.22;;;14.56;nan
19108;BME280;9686;48.832;9.126;2023-05-11T06:31:43;97986.06;;;14.46;nan
19108;BME280;9686;48.832;9.126;2023-05-11T06:34:09;97991.41;;;14.42;nan
19108;BME280;9686;48.832;9.126;2023-05-11T06:36:34;97982.56;;;14.47;nan
19108;BME280;9686;48.832;9.126;2023-05-11T06:39:00;97987.75;;;14.49;nan
19108;BME280;9686;48.832;9.126;2023-05-11T06:41:25;97977.91;;;14.57;nan
19108;BME280;9686;48.832;9.126;2023-05-11T06:43:50;97986.81;;;14.52;nan
19108;BME280;9686;48.832;9.126;2023-05-11T06:46:16;97985.56;;;14.66;nan
19108;BME280;9686;48.832;9.126;2023-05-11T06:48:42;97981.56;;;14.52;nan
19108;BME280;9686;48.832;9.126;2023-05-11T06:51:10;97981.72;;;14.45;nan
19108;BME280;9686;48.832;9.126;2023-05-11T06:53:36;97980.66;;;14.53;nan
19108;BME280;9686;48.832;9.126;2023-05-11T06:56:02;97982.03;;;14.67;nan
19108;BME280;9686;48.832;9.126;2023-05-11T06:58:27;97977.22;;;14.50;nan
19108;BME280;9686;48.832;9.126;2023-05-11T07:00:53;97983.66;;;14.37;nan
19108;BME280;9686;48.832;9.126;2023-05-11T07:03:18;97989.47;;;14.50;nan
19108;BME280;9686;48.832;9.126;2023-05-11T07:05:43;97984.13;;;14.55;nan
19108;BME280;9686;48.832;9.126;2023-05-11T07:08:08;97994.03;;;14.42;nan
19108;BME280;9686;48.832;9.126;2023-05-11T07:10:34;97994.16;;;14.37;nan
19108;BME280;9686;48.832;9.126;2023-05-11T07:13:00;97997.66;;;14.36;nan
19108;BME280;9686;48.832;9.126;2023-05-11T07:15:25;98003.81;;;14.35;nan
19108;BME280;9686;48.832;9.126;2023-05-11T07:17:50;98002.97;;;14.35;nan
19108;BME280;9686;48.832;9.126;2023-05-11T07:20:16;98001.25;;;14.34;nan
19108;BME280;9686;48.832;9.126;2023-05-11T07:22:41;98009.28;;;14.63;nan
19108;BME280;9686;48.832;9.126;2023-05-11T07:25:07;98008.66;;;14.52;nan
19108;BME280;9686;48.832;9.126;2023-05-11T07:27:35;98012.31;;;14.46;nan
19108;BME280;9686;48.832;9.126;2023-05-11T07:30:02;98008.31;;;14.66;nan
19108;BME280;9686;48.832;9.126;2023-05-11T07:32:28;98007.50;;;14.64;nan
19108;BME280;9686;48.832;9.126;2023-05-11T07:34:53;98009.69;;;14.80;nan
19108;BME280;9686;48.832;9.126;2023-05-11T07:37:18;98001.88;;;14.77;nan
19108;BME280;9686;48.832;9.126;2023-05-11T07:39:44;98006.41;;;14.72;nan
19108;BME280;9686;48.832;9.126;2023-05-11T07:42:09;98013.13;;;14.48;nan
19108;BME280;9686;48.832;9.126;2023-05-11T07:44:34;98010.22;;;14.61;nan
19108;BME280;9686;48.832;9.126;2023-05-11T07:46:59;98018.69;;;14.70;nan
19108;BME280;9686;48.832;9.126;2023-05-11T07:49:25;98006.72;;;14.60;nan
19108;BME280;9686;48.832;9.126;2023-05-11T07:51:50;98010.41;;;14.52;nan
19108;BME280;9686;48.832;9.126;2023-05-11T07:54:16;98016.66;;;14.47;nan
19108;BME280;9686;48.832;9.126;2023-05-11T07:56:42;98016.81;;;14.75;nan
19108;BME280;9686;48.832;9.126;2023-05-11T07:59:07;98012.94;;;14.90;nan
19108;BME280;9686;48.832;9.126;2023-05-11T08:01:32;98016.78;;;14.77;nan
19108;BME280;9686;48.832;9.126;2023-05-11T08:03:57;98014.03;;;14.81;nan
19108;BME280;9686;48.832;9.126;2023-05-11T08:06:23;98006.78;;;14.91;nan
19108;BME280;9686;48.832;9.126;2023-05-11T08:08:48;98005.84;;;14.94;nan
19108;BME280;9686;48.832;9.126;2023-05-11T08:11:13;98006.78;;;14.91;nan
19108;BME280;9686;48.832;9.126;2023-05-11T08:13:39;98001.97;;;15.07;nan
19108;BME280;9686;48.832;9.126;2023-05-11T08:16:05;98003.50;;;15.16;nan
19108;BME280;9686;48.832;9.126;2023-05-11T08:18:30;98008.78;;;15.14;nan
19108;BME280;9686;48.832;9.126;2023-05-11T08:20:56;98011.47;;;15.13;nan
19108;BME280;9686;48.832;9.126;2023-05-11T08:23:21;98002.38;;;15.24;nan
19108;BME280;9686;48.832;9.126;2023-05-11T08:25:51;97999.78;;;15.23;nan
19108;BME280;9686;48.832;9.126;2023-05-11T08:28:18;98010.06;;;15.30;nan
19108;BME280;9686;48.832;9.126;2023-05-11T08:30:43;98006.59;;;15.30;nan
19108;BME280;9686;48.832;9.126;2023-05-11T08:33:09;98002.09;;;15.33;nan
19108;BME280;9686;48.832;9.126;2023-05-11T08:35:34;98005.34;;;15.12;nan
19108;BME280;9686;48.832;9.126;2023-05-11T08:37:59;98006.25;;;15.11;nan
19108;BME280;9686;48.832;9.126;2023-05-11T08:40:26;98006.03;;;15.19;nan
19108;BME280;9686;48.832;9.126;2023-05-11T08:42:54;98006.25;;;15.11;nan
19108;BME280;9686;48.832;9.126;2023-05-11T08:45:20;98010.16;;;15.27;nan
19108;BME280;9686;48.832;9.126;2023-05-11T08:47:46;98009.47;;;15.52;nan
19108;BME280;9686;48.832;9.126;2023-05-11T08:50:12;98004.34;;;15.47;nan
19108;BME280;9686;48.832;9.126;2023-05-11T08:52:38;98011.59;;;15.39;nan
19108;BME280;9686;48.832;9.126;2023-05-11T08:55:05;98007.94;;;15.45;nan
19108;BME280;9686;48.832;9.126;2023-05-11T08:57:33;98007.56;;;15.57;nan
19108;BME280;9686;48.832;9.126;2023-05-11T09:00:01;98008.88;;;15.42;nan
19108;BME280;9686;48.832;9.126;2023-05-11T09:02:27;98013.50;;;15.32;nan
19108;BME280;9686;48.832;9.126;2023-05-11T09:04:53;98005.59;;;15.34;nan
19108;BME280;9686;48.832;9.126;2023-05-11T09:07:19;98004.91;;;15.27;nan
19108;BME280;9686;48.832;9.126;2023-05-11T09:09:45;98009.25;;;15.28;nan
19108;BME280;9686;48.832;9.126;2023-05-11T09:12:11;98006.53;;;15.31;nan
19108;BME280;9686;48.832;9.126;2023-05-11T09:14:37;98000.94;;;15.43;nan
19108;BME280;9686;48.832;9.126;2023-05-11T09:17:02;98001.13;;;15.37;nan
19108;BME280;9686;48.832;9.126;2023-05-11T09:19:29;98008.78;;;15.45;nan
19108;BME280;9686;48.832;9.126;2023-05-11T09:21:54;98003.53;;;15.45;nan
19108;BME280;9686;48.832;9.126;2023-05-11T09:24:20;98004.16;;;15.53;nan
19108;BME280;9686;48.832;9.126;2023-05-11T09:26:46;98012.84;;;15.55;nan
19108;BME280;9686;48.832;9.126;2023-05-11T09:29:12;98006.25;;;15.73;nan
19108;BME280;9686;48.832;9.126;2023-05-11T09:31:41;97998.50;;;15.68;nan
19108;BME280;9686;48.832;9.126;2023-05-11T09:34:11;97999.06;;;15.78;nan
19108;BME280;9686;48.832;9.126;2023-05-11T09:36:38;97997.50;;;15.72;nan
19108;BME280;9686;48.832;9.126;2023-05-11T09:39:03;97992.84;;;15.81;nan
19108;BME280;9686;48.832;9.126;2023-05-11T09:41:30;98000.66;;;15.84;nan
19108;BME280;9686;48.832;9.126;2023-05-11T09:44:05;98002.84;;;15.69;nan
19108;BME280;9686;48.832;9.126;2023-05-11T09:46:30;98000.16;;;15.71;nan
19108;BME280;9686;48.832;9.126;2023-05-11T09:48:59;98002.25;;;15.60;nan
19108;BME280;9686;48.832;9.126;2023-05-11T09:51:29;97995.97;;;15.65;nan
19108;BME280;9686;48.832;9.126;2023-05-11T09:53:56;98003.84;;;15.65;nan
19108;BME280;9686;48.832;9.126;2023-05-11T09:56:21;97997.84;;;15.60;nan
19108;BME280;9686;48.832;9.126;2023-05-11T09:58:50;98003.09;;;15.60;nan
19108;BME280;9686;48.832;9.126;2023-05-11T10:01:17;98001.84;;;15.73;nan
19108;BME280;9686;48.832;9.126;2023-05-11T10:03:51;97991.16;;;15.49;nan
19108;BME280;9686;48.832;9.126;2023-05-11T10:06:19;97997.13;;;15.54;nan
19108;BME280;9686;48.832;9.126;2023-05-11T10:08:45;97998.75;;;15.58;nan
19108;BME280;9686;48.832;9.126;2023-05-11T10:11:11;97996.31;;;15.52;nan
19108;BME280;9686;48.832;9.126;2023-05-11T10:13:37;97994.69;;;15.48;nan
19108;BME280;9686;48.832;9.126;2023-05-11T10:16:04;98001.44;;;15.56;nan
19108;BME280;9686;48.832;9.126;2023-05-11T10:18:31;97997.50;;;15.41;nan
19108;BME280;9686;48.832;9.126;2023-05-11T10:20:58;97997.75;;;15.65;nan
19108;BME280;9686;48.832;9.126;2023-05-11T10:23:24;98003.84;;;15.65;nan
19108;BME280;9686;48.832;9.126;2023-05-11T10:25:51;98001.38;;;15.59;nan
19108;BME280;9686;48.832;9.126;2023-05-11T10:28:17;98008.41;;;15.59;nan
19108;BME280;9686;48.832;9.126;2023-05-11T10:30:43;98013.28;;;15.72;nan
19108;BME280;9686;48.832;9.126;2023-05-11T10:33:09;97998.97;;;15.81;nan
19108;BME280;9686;48.832;9.126;2023-05-11T10:35:36;97996.53;;;15.75;nan
19108;BME280;9686;48.832;9.126;2023-05-11T10:38:02;97989.56;;;15.74;nan
19108;BME280;9686;48.832;9.126;2023-05-11T10:40:27;97990.72;;;15.65;nan
19108;BME280;9686;48.832;9.126;2023-05-11T10:46:04;97994.72;;;15.77;nan
19108;BME280;9686;48.832;9.126;2023-05-11T10:51:56;97990.22;;;15.81;nan
19108;BME280;9686;48.832;9.126;2023-05-11T10:54:44;97981.69;;;15.74;nan
19108;BME280;9686;48.832;9.126;2023-05-11T11:00:11;97981.06;;;15.66;nan
19108;BME280;9686;48.832;9.126;2023-05-11T11:02:40;97990.31;;;15.78;nan
19108;BME280;9686;48.832;9.126;2023-05-11T11:05:06;97985.84;;;15.81;nan
19108;BME280;9686;48.832;9.126;2023-05-11T11:07:57;97984.03;;;15.83;nan
19108;BME280;9686;48.832;9.126;2023-05-11T11:13:08;97975.22;;;16.12;nan
19108;BME280;9686;48.832;9.126;2023-05-11T11:18:25;97968.28;;;16.10;nan
19108;BME280;9686;48.832;9.126;2023-05-11T11:20:52;97976.72;;;16.21;nan
19108;BME280;9686;48.832;9.126;2023-05-11T11:23:50;97965.53;;;16.14;nan
19108;BME280;9686;48.832;9.126;2023-05-11T11:26:17;97975.91;;;16.19;nan
19108;BME280;9686;48.832;9.126;2023-05-11T11:29:08;97977.41;;;16.26;nan
19108;BME280;9686;48.832;9.126;2023-05-11T11:31:34;97970.88;;;16.38;nan
19108;BME280;9686;48.832;9.126;2023-05-11T11:39:47;97965.38;;;16.45;nan
19108;BME280;9686;48.832;9.126;2023-05-11T11:44:41;97964.94;;;16.57;nan
19108;BME280;9686;48.832;9.126;2023-05-11T11:49:36;97957.28;;;16.51;nan
19108;BME280;9686;48.832;9.126;2023-05-11T11:52:02;97954.97;;;16.69;nan
19108;BME280;9686;48.832;9.126;2023-05-11T11:54:42;97961.00;;;16.72;nan
19108;BME280;9686;48.832;9.126;2023-05-11T11:57:43;97958.53;;;16.91;nan
19108;BME280;9686;48.832;9.126;2023-05-11T12:00:13;97960.66;;;16.81;nan
19108;BME280;9686;48.832;9.126;2023-05-11T12:02:44;97959.31;;;16.94;nan
19108;BME280;9686;48.832;9.126;2023-05-11T12:05:14;97963.22;;;17.08;nan
19108;BME280;9686;48.832;9.126;2023-05-11T12:07:44;97963.09;;;17.11;nan
19108;BME280;9686;48.832;9.126;2023-05-11T12:10:14;97952.66;;;17.33;nan
19108;BME280;9686;48.832;9.126;2023-05-11T12:12:51;97950.81;;;17.35;nan
19108;BME280;9686;48.832;9.126;2023-05-11T12:15:24;97942.28;;;17.28;nan
19108;BME280;9686;48.832;9.126;2023-05-11T12:17:50;97933.69;;;17.46;nan
19108;BME280;9686;48.832;9.126;2023-05-11T12:20:17;97944.63;;;17.36;nan
19108;BME280;9686;48.832;9.126;2023-05-11T12:22:43;97941.88;;;17.39;nan
19108;BME280;9686;48.832;9.126;2023-05-11T12:25:11;97945.66;;;17.32;nan
19108;BME280;9686;48.832;9.126;2023-05-11T12:30:23;97943.56;;;17.16;nan
19108;BME280;9686;48.832;9.126;2023-05-11T12:32:48;97946.97;;;17.43;nan
19108;BME280;9686;48.832;9.126;2023-05-11T12:35:21;97946.19;;;17.18;nan
19108;BME280;9686;48.832;9.126;2023-05-11T12:37:47;97937.63;;;17.35;nan
19108;BME280;9686;48.832;9.126;2023-05-11T12:40:12;97942.03;;;17.11;nan
19108;BME280;9686;48.832;9.126;2023-05-11T12:42:38;97932.19;;;16.92;nan
19108;BME280;9686;48.832;9.126;2023-05-11T12:45:07;97935.19;;;16.82;nan
19108;BME280;9686;48.832;9.126;2023-05-11T12:47:34;97933.69;;;16.75;nan
19108;BME280;9686;48.832;9.126;2023-05-11T12:49:59;97935.56;;;16.96;nan
19108;BME280;9686;48.832;9.126;2023-05-11T12:52:25;97930.06;;;17.02;nan
19108;BME280;9686;48.832;9.126;2023-05-11T12:54:50;97929.38;;;16.97;nan
19108;BME280;9686;48.832;9.126;2023-05-11T12:57:42;97920.41;;;17.03;nan
19108;BME280;9686;48.832;9.126;2023-05-11T13:03:03;97913.66;;;16.95;nan
19108;BME280;9686;48.832;9.126;2023-05-11T13:05:27;97908.16;;;17.02;nan
19108;BME280;9686;48.832;9.126;2023-05-11T13:08:03;97909.44;;;17.13;nan
19108;BME280;9686;48.832;9.126;2023-05-11T13:10:29;97907.63;;;17.15;nan
19108;BME280;9686;48.832;9.126;2023-05-11T13:12:55;97908.31;;;16.97;nan
19108;BME280;9686;48.832;9.126;2023-05-11T13:15:22;97899.72;;;17.15;nan
19108;BME280;9686;48.832;9.126;2023-05-11T13:17:54;97903.16;;;17.17;nan
19108;BME280;9686;48.832;9.126;2023-05-11T13:20:28;97895.41;;;17.13;nan
19108;BME280;9686;48.832;9.126;2023-05-11T13:23:07;97890.88;;;17.18;nan
19108;BME280;9686;48.832;9.126;2023-05-11T13:28:11;97886.22;;;17.24;nan
19108;BME280;9686;48.832;9.126;2023-05-11T13:30:36;97881.66;;;17.51;nan
19108;BME280;9686;48.832;9.126;2023-05-11T13:33:02;97892.06;;;17.54;nan
19108;BME280;9686;48.832;9.126;2023-05-11T13:35:27;97885.34;;;17.47;nan
19108;BME280;9686;48.832;9.126;2023-05-11T13:37:52;97887.78;;;17.52;nan
19108;BME280;9686;48.832;9.126;2023-05-11T13:40:18;97889.63;;;17.50;nan
19108;BME280;9686;48.832;9.126;2023-05-11T13:42:43;97879.75;;;17.55;nan
19108;BME280;9686;48.832;9.126;2023-05-11T13:45:09;97878.56;;;17.40;nan
19108;BME280;9686;48.832;9.126;2023-05-11T13:47:35;97873.56;;;17.56;nan
19108;BME280;9686;48.832;9.126;2023-05-11T13:50:01;97869.88;;;17.38;nan
19108;BME280;9686;48.832;9.126;2023-05-11T13:52:27;97862.53;;;17.46;nan
19108;BME280;9686;48.832;9.126;2023-05-11T13:54:53;97867.16;;;17.40;nan
19108;BME280;9686;48.832;9.126;2023-05-11T13:57:18;97862.03;;;17.58;nan
19108;BME280;9686;48.832;9.126;2023-05-11T13:59:43;97859.09;;;17.66;nan
19108;BME280;9686;48.832;9.126;2023-05-11T14:02:08;97854.94;;;17.61;nan
19108;BME280;9686;48.832;9.126;2023-05-11T14:04:34;97856.59;;;17.85;nan
19108;BME280;9686;48.832;9.126;2023-05-11T14:06:59;97859.00;;;17.91;nan
19108;BME280;9686;48.832;9.126;2023-05-11T14:09:24;97852.84;;;17.91;nan
19108;BME280;9686;48.832;9.126;2023-05-11T14:11:50;97858.97;;;18.13;nan
19108;BME280;9686;48.832;9.126;2023-05-11T14:14:16;97850.53;;;18.25;nan
19108;BME280;9686;48.832;9.126;2023-05-11T14:16:41;97852.66;;;18.37;nan